sensor_id;sensor_type;location;lat;lon;timestamp;pressure;altitude;pressure_sealevel;temperature;humidity
41686;BME280;27370;42.764;23.432;2023-02-28T00:01:13;96036.25;;;4.55;100.00
41686;BME280;27370;42.764;23.432;2023-02-28T00:03:39;96046.03;;;4.48;100.00
41686;BME280;27370;42.764;23.432;2023-02-28T00:06:06;96052.00;;;4.18;100.00
41686;BME280;27370;42.764;23.432;2023-02-28T00:08:32;96044.47;;;4.05;100.00
41686;BME280;27370;42.764;23.432;2023-02-28T00:11:05;96053.19;;;4.21;100.00
41686;BME280;27370;42.764;23.432;2023-02-28T00:13:32;96052.13;;;4.25;100.00
41686;BME280;27370;42.764;23.432;2023-02-28T00:16:04;96049.88;;;4.27;100.00
41686;BME280;27370;42.764;23.432;2023-02-28T00:18:31;96065.47;;;4.41;100.00
41686;BME280;27370;42.764;23.432;2023-02-28T00:20:57;96072.09;;;4.47;100.00
41686;BME280;27370;42.764;23.432;2023-02-28T00:23:26;96062.03;;;4.21;100.00
41686;BME280;27370;42.764;23.432;2023-02-28T00:25:52;96065.75;;;4.36;100.00
41686;BME280;27370;42.764;23.432;2023-02-28T00:28:19;96059.69;;;4.39;100.00
41686;BME280;27370;42.764;23.432;2023-02-28T00:30:45;96068.56;;;4.43;100.00
41686;BME280;27370;42.764;23.432;2023-02-28T00:33:10;96076.09;;;4.57;100.00
41686;BME280;27370;42.764;23.432;2023-02-28T00:35:36;96073.66;;;4.71;100.00
41686;BME280;27370;42.764;23.432;2023-02-28T00:38:02;96067.88;;;4.69;100.00
41686;BME280;27370;42.764;23.432;2023-02-28T00:40:28;96075.44;;;4.64;100.00
41686;BME280;27370;42.764;23.432;2023-02-28T00:42:54;96073.53;;;4.64;100.00
41686;BME280;27370;42.764;23.432;2023-02-28T00:45:20;96066.16;;;4.57;100.00
41686;BME280;27370;42.764;23.432;2023-02-28T00:47:45;96070.19;;;4.48;100.00
41686;BME280;27370;42.764;23.432;2023-02-28T00:50:12;96069.47;;;4.51;100.00
41686;BME280;27370;42.764;23.432;2023-02-28T00:52:37;96053.13;;;4.17;100.00
41686;BME280;27370;42.764;23.432;2023-02-28T00:55:03;96066.81;;;4.32;100.00
41686;BME280;27370;42.764;23.432;2023-02-28T00:57:29;96047.28;;;4.31;100.00
41686;BME280;27370;42.764;23.432;2023-02-28T00:59:54;96050.09;;;4.19;100.00
41686;BME280;27370;42.764;23.432;2023-02-28T01:02:21;96042.25;;;4.29;100.00
41686;BME280;27370;42.764;23.432;2023-02-28T01:04:47;96034.44;;;4.21;100.00
41686;BME280;27370;42.764;23.432;2023-02-28T01:07:13;96027.47;;;4.16;100.00
41686;BME280;27370;42.764;23.432;2023-02-28T01:09:40;96024.38;;;4.14;100.00
41686;BME280;27370;42.764;23.432;2023-02-28T01:12:07;96027.19;;;4.21;100.00
41686;BME280;27370;42.764;23.432;2023-02-28T01:14:32;96041.84;;;4.27;100.00
41686;BME280;27370;42.764;23.432;2023-02-28T01:16:58;96040.75;;;4.09;100.00
41686;BME280;27370;42.764;23.432;2023-02-28T01:19:24;96036.34;;;4.01;100.00
41686;BME280;27370;42.764;23.432;2023-02-28T01:21:49;96035.94;;;4.18;100.00
41686;BME280;27370;42.764;23.432;2023-02-28T01:24:15;96042.72;;;4.12;100.00
41686;BME280;27370;42.764;23.432;2023-02-28T01:26:40;96038.31;;;4.04;100.00
41686;BME280;27370;42.764;23.432;2023-02-28T01:29:06;96037.53;;;4.23;100.00
41686;BME280;27370;42.764;23.432;2023-02-28T01:31:32;96030.34;;;4.27;100.00
41686;BME280;27370;42.764;23.432;2023-02-28T01:33:58;96037.00;;;4.14;100.00
41686;BME280;27370;42.764;23.432;2023-02-28T01:36:27;96035.16;;;3.98;100.00
41686;BME280;27370;42.764;23.432;2023-02-28T01:38:54;96031.06;;;4.05;100.00
41686;BME280;27370;42.764;23.432;2023-02-28T01:41:26;96025.09;;;3.92;100.00
41686;BME280;27370;42.764;23.432;2023-02-28T01:46:29;96027.00;;;3.91;100.00
41686;BME280;27370;42.764;23.432;2023-02-28T01:49:06;96030.13;;;3.78;100.00
41686;BME280;27370;42.764;23.432;2023-02-28T01:51:44;96031.53;;;3.52;100.00
41686;BME280;27370;42.764;23.432;2023-02-28T01:54:20;96045.66;;;3.68;100.00
41686;BME280;27370;42.764;23.432;2023-02-28T01:56:52;96039.75;;;3.44;100.00
41686;BME280;27370;42.764;23.432;2023-02-28T01:59:23;96037.66;;;3.53;100.00
41686;BME280;27370;42.764;23.432;2023-02-28T02:01:51;96033.00;;;3.50;100.00
41686;BME280;27370;42.764;23.432;2023-02-28T02:04:18;96034.75;;;3.42;100.00
41686;BME280;27370;42.764;23.432;2023-02-28T02:06:47;96028.31;;;3.27;100.00
41686;BME280;27370;42.764;23.432;2023-02-28T02:09:13;96036.69;;;3.26;100.00
41686;BME280;27370;42.764;23.432;2023-02-28T02:11:41;96044.59;;;3.38;100.00
41686;BME280;27370;42.764;23.432;2023-02-28T02:14:11;96050.22;;;3.33;100.00
41686;BME280;27370;42.764;23.432;2023-02-28T02:26:06;96042.38;;;3.08;100.00
41686;BME280;27370;42.764;23.432;2023-02-28T02:31:22;96039.22;;;3.38;100.00
41686;BME280;27370;42.764;23.432;2023-02-28T02:39:42;64952.78;;;-141.99;100.00
41686;BME280;27370;42.764;23.432;2023-02-28T02:42:16;64952.78;;;-141.99;100.00
41686;BME280;27370;42.764;23.432;2023-02-28T02:44:50;64952.78;;;-141.99;100.00
41686;BME280;27370;42.764;23.432;2023-02-28T02:47:20;64952.78;;;-141.99;100.00
41686;BME280;27370;42.764;23.432;2023-02-28T02:49:52;64952.78;;;-141.99;100.00
41686;BME280;27370;42.764;23.432;2023-02-28T02:52:22;64952.78;;;-141.99;100.00
41686;BME280;27370;42.764;23.432;2023-02-28T02:54:52;64952.78;;;-141.99;100.00
41686;BME280;27370;42.764;23.432;2023-02-28T02:57:25;64952.78;;;-141.99;100.00
41686;BME280;27370;42.764;23.432;2023-02-28T02:59:54;64952.78;;;-141.99;100.00
41686;BME280;27370;42.764;23.432;2023-02-28T03:02:22;64952.78;;;-141.99;100.00
41686;BME280;27370;42.764;23.432;2023-02-28T03:04:52;64952.78;;;-141.99;100.00
41686;BME280;27370;42.764;23.432;2023-02-28T03:07:20;64952.78;;;-141.99;100.00
41686;BME280;27370;42.764;23.432;2023-02-28T03:09:54;64952.78;;;-141.99;100.00
41686;BME280;27370;42.764;23.432;2023-02-28T03:12:23;64952.78;;;-141.99;100.00
41686;BME280;27370;42.764;23.432;2023-02-28T03:15:07;64952.78;;;-141.99;100.00
41686;BME280;27370;42.764;23.432;2023-02-28T03:17:51;64952.78;;;-141.99;100.00
41686;BME280;27370;42.764;23.432;2023-02-28T03:23:13;64952.78;;;-141.99;100.00
41686;BME280;27370;42.764;23.432;2023-02-28T03:28:53;64952.78;;;-141.99;100.00
41686;BME280;27370;42.764;23.432;2023-02-28T03:31:32;64952.78;;;-141.99;100.00
41686;BME280;27370;42.764;23.432;2023-02-28T03:34:04;64952.78;;;-141.99;100.00
41686;BME280;27370;42.764;23.432;2023-02-28T03:36:40;64952.78;;;-141.99;100.00
41686;BME280;27370;42.764;23.432;2023-02-28T03:39:18;64952.78;;;-141.99;100.00
41686;BME280;27370;42.764;23.432;2023-02-28T03:41:57;64952.78;;;-141.99;100.00
41686;BME280;27370;42.764;23.432;2023-02-28T03:44:28;64952.78;;;-141.99;100.00
41686;BME280;27370;42.764;23.432;2023-02-28T03:47:17;64952.78;;;-141.99;100.00
41686;BME280;27370;42.764;23.432;2023-02-28T03:49:54;64952.78;;;-141.99;100.00
41686;BME280;27370;42.764;23.432;2023-02-28T03:52:25;64952.78;;;-141.99;100.00
41686;BME280;27370;42.764;23.432;2023-02-28T03:54:55;64952.78;;;-141.99;100.00
41686;BME280;27370;42.764;23.432;2023-02-28T04:00:05;64952.78;;;-141.99;100.00
41686;BME280;27370;42.764;23.432;2023-02-28T04:02:37;64952.78;;;-141.99;100.00
41686;BME280;27370;42.764;23.432;2023-02-28T04:05:06;64952.78;;;-141.99;100.00
41686;BME280;27370;42.764;23.432;2023-02-28T04:07:32;64952.78;;;-141.99;100.00
41686;BME280;27370;42.764;23.432;2023-02-28T04:09:58;64952.78;;;-141.99;100.00
41686;BME280;27370;42.764;23.432;2023-02-28T04:12:24;64952.78;;;-141.99;100.00
41686;BME280;27370;42.764;23.432;2023-02-28T04:14:50;64952.78;;;-141.99;100.00
41686;BME280;27370;42.764;23.432;2023-02-28T04:17:16;64952.78;;;-141.99;100.00
41686;BME280;27370;42.764;23.432;2023-02-28T04:19:42;64952.78;;;-141.99;100.00
41686;BME280;27370;42.764;23.432;2023-02-28T04:22:08;64952.78;;;-141.99;100.00
41686;BME280;27370;42.764;23.432;2023-02-28T04:24:34;64952.78;;;-141.99;100.00
41686;BME280;27370;42.764;23.432;2023-02-28T04:27:00;64952.78;;;-141.99;100.00
41686;BME280;27370;42.764;23.432;2023-02-28T04:29:27;64952.78;;;-141.99;100.00
41686;BME280;27370;42.764;23.432;2023-02-28T04:31:54;64952.78;;;-141.99;100.00
41686;BME280;27370;42.764;23.432;2023-02-28T04:34:20;64952.78;;;-141.99;100.00
41686;BME280;27370;42.764;23.432;2023-02-28T04:36:47;64952.78;;;-141.99;100.00
41686;BME280;27370;42.764;23.432;2023-02-28T04:39:16;64952.78;;;-141.99;100.00
41686;BME280;27370;42.764;23.432;2023-02-28T04:41:44;64952.78;;;-141.99;100.00
41686;BME280;27370;42.764;23.432;2023-02-28T04:44:10;64952.78;;;-141.99;100.00
41686;BME280;27370;42.764;23.432;2023-02-28T04:46:35;64952.78;;;-141.99;100.00
41686;BME280;27370;42.764;23.432;2023-02-28T04:49:01;64952.78;;;-141.99;100.00
41686;BME280;27370;42.764;23.432;2023-02-28T04:51:27;64952.78;;;-141.99;100.00
41686;BME280;27370;42.764;23.432;2023-02-28T04:53:53;64952.78;;;-141.99;100.00
41686;BME280;27370;42.764;23.432;2023-02-28T04:56:18;64952.78;;;-141.99;100.00
41686;BME280;27370;42.764;23.432;2023-02-28T04:58:44;64952.78;;;-141.99;100.00
41686;BME280;27370;42.764;23.432;2023-02-28T05:03:44;64952.78;;;-141.99;100.00
41686;BME280;27370;42.764;23.432;2023-02-28T05:06:11;64952.78;;;-141.99;100.00
41686;BME280;27370;42.764;23.432;2023-02-28T05:08:37;64952.78;;;-141.99;100.00
41686;BME280;27370;42.764;23.432;2023-02-28T05:11:03;64952.78;;;-141.99;100.00
41686;BME280;27370;42.764;23.432;2023-02-28T05:13:29;64952.78;;;-141.99;100.00
41686;BME280;27370;42.764;23.432;2023-02-28T05:15:55;64952.78;;;-141.99;100.00
41686;BME280;27370;42.764;23.432;2023-02-28T05:18:21;64952.78;;;-141.99;100.00
41686;BME280;27370;42.764;23.432;2023-02-28T05:20:47;64952.78;;;-141.99;100.00
41686;BME280;27370;42.764;23.432;2023-02-28T05:23:13;64952.78;;;-141.99;100.00
41686;BME280;27370;42.764;23.432;2023-02-28T05:25:39;64952.78;;;-141.99;100.00
41686;BME280;27370;42.764;23.432;2023-02-28T05:28:05;64952.78;;;-141.99;100.00
41686;BME280;27370;42.764;23.432;2023-02-28T05:30:31;64952.78;;;-141.99;100.00
41686;BME280;27370;42.764;23.432;2023-02-28T05:32:57;64952.78;;;-141.99;100.00
41686;BME280;27370;42.764;23.432;2023-02-28T05:35:24;64952.78;;;-141.99;100.00
41686;BME280;27370;42.764;23.432;2023-02-28T05:37:50;64952.78;;;-141.99;100.00
41686;BME280;27370;42.764;23.432;2023-02-28T05:40:16;64952.78;;;-141.99;100.00
41686;BME280;27370;42.764;23.432;2023-02-28T05:42:42;64952.78;;;-141.99;100.00
41686;BME280;27370;42.764;23.432;2023-02-28T05:45:09;64952.78;;;-141.99;100.00
41686;BME280;27370;42.764;23.432;2023-02-28T05:47:35;64952.78;;;-141.99;100.00
41686;BME280;27370;42.764;23.432;2023-02-28T05:50:01;64952.78;;;-141.99;100.00
41686;BME280;27370;42.764;23.432;2023-02-28T05:52:28;64952.78;;;-141.99;100.00
41686;BME280;27370;42.764;23.432;2023-02-28T05:54:55;64952.78;;;-141.99;100.00
41686;BME280;27370;42.764;23.432;2023-02-28T05:57:21;64952.78;;;-141.99;100.00
41686;BME280;27370;42.764;23.432;2023-02-28T05:59:46;64952.78;;;-141.99;100.00
41686;BME280;27370;42.764;23.432;2023-02-28T06:02:14;64952.78;;;-141.99;100.00
41686;BME280;27370;42.764;23.432;2023-02-28T06:04:40;64952.78;;;-141.99;100.00
41686;BME280;27370;42.764;23.432;2023-02-28T06:07:07;64952.78;;;-141.99;100.00
41686;BME280;27370;42.764;23.432;2023-02-28T06:09:33;64952.78;;;-141.99;100.00
41686;BME280;27370;42.764;23.432;2023-02-28T06:11:59;64952.78;;;-141.99;100.00
41686;BME280;27370;42.764;23.432;2023-02-28T06:14:26;64952.78;;;-141.99;100.00
41686;BME280;27370;42.764;23.432;2023-02-28T06:16:51;64952.78;;;-141.99;100.00
41686;BME280;27370;42.764;23.432;2023-02-28T06:19:17;64952.78;;;-141.99;100.00
41686;BME280;27370;42.764;23.432;2023-02-28T06:21:43;64952.78;;;-141.99;100.00
41686;BME280;27370;42.764;23.432;2023-02-28T06:24:09;64952.78;;;-141.99;100.00
41686;BME280;27370;42.764;23.432;2023-02-28T06:26:35;64952.78;;;-141.99;100.00
41686;BME280;27370;42.764;23.432;2023-02-28T06:29:00;64952.78;;;-141.99;100.00
41686;BME280;27370;42.764;23.432;2023-02-28T06:31:26;64952.78;;;-141.99;100.00
41686;BME280;27370;42.764;23.432;2023-02-28T06:33:54;64952.78;;;-141.99;100.00
41686;BME280;27370;42.764;23.432;2023-02-28T06:36:20;64952.78;;;-141.99;100.00
41686;BME280;27370;42.764;23.432;2023-02-28T06:38:46;64952.78;;;-141.99;100.00
41686;BME280;27370;42.764;23.432;2023-02-28T06:41:16;64952.78;;;-141.99;100.00
41686;BME280;27370;42.764;23.432;2023-02-28T06:43:42;64952.78;;;-141.99;100.00
41686;BME280;27370;42.764;23.432;2023-02-28T06:46:11;64952.78;;;-141.99;100.00
41686;BME280;27370;42.764;23.432;2023-02-28T06:48:37;64952.78;;;-141.99;100.00
41686;BME280;27370;42.764;23.432;2023-02-28T06:51:08;64952.78;;;-141.99;100.00
41686;BME280;27370;42.764;23.432;2023-02-28T06:53:34;64952.78;;;-141.99;100.00
41686;BME280;27370;42.764;23.432;2023-02-28T06:56:04;64952.78;;;-141.99;100.00
41686;BME280;27370;42.764;23.432;2023-02-28T06:58:31;64952.78;;;-141.99;100.00
41686;BME280;27370;42.764;23.432;2023-02-28T07:00:57;64952.78;;;-141.99;100.00
41686;BME280;27370;42.764;23.432;2023-02-28T07:03:22;64952.78;;;-141.99;100.00
41686;BME280;27370;42.764;23.432;2023-02-28T07:05:48;64952.78;;;-141.99;100.00
41686;BME280;27370;42.764;23.432;2023-02-28T07:08:14;64952.78;;;-141.99;100.00
41686;BME280;27370;42.764;23.432;2023-02-28T07:10:40;64952.78;;;-141.99;100.00
41686;BME280;27370;42.764;23.432;2023-02-28T07:13:08;64952.78;;;-141.99;100.00
41686;BME280;27370;42.764;23.432;2023-02-28T07:15:35;64952.78;;;-141.99;100.00
41686;BME280;27370;42.764;23.432;2023-02-28T07:18:00;64952.78;;;-141.99;100.00
41686;BME280;27370;42.764;23.432;2023-02-28T07:20:26;64952.78;;;-141.99;100.00
41686;BME280;27370;42.764;23.432;2023-02-28T07:22:51;64952.78;;;-141.99;100.00
41686;BME280;27370;42.764;23.432;2023-02-28T07:25:25;64952.78;;;-141.99;100.00
41686;BME280;27370;42.764;23.432;2023-02-28T07:27:51;64952.78;;;-141.99;100.00
41686;BME280;27370;42.764;23.432;2023-02-28T07:30:17;64952.78;;;-141.99;100.00
41686;BME280;27370;42.764;23.432;2023-02-28T07:32:43;64952.78;;;-141.99;100.00
41686;BME280;27370;42.764;23.432;2023-02-28T07:35:08;64952.78;;;-141.99;100.00
41686;BME280;27370;42.764;23.432;2023-02-28T07:37:34;64952.78;;;-141.99;100.00
41686;BME280;27370;42.764;23.432;2023-02-28T07:40:07;64952.78;;;-141.99;100.00
41686;BME280;27370;42.764;23.432;2023-02-28T07:42:35;64952.78;;;-141.99;100.00
41686;BME280;27370;42.764;23.432;2023-02-28T07:45:03;64952.78;;;-141.99;100.00
41686;BME280;27370;42.764;23.432;2023-02-28T07:47:29;64952.78;;;-141.99;100.00
41686;BME280;27370;42.764;23.432;2023-02-28T07:49:55;64952.78;;;-141.99;100.00
41686;BME280;27370;42.764;23.432;2023-02-28T07:52:21;64952.78;;;-141.99;100.00
41686;BME280;27370;42.764;23.432;2023-02-28T07:54:48;64952.78;;;-141.99;100.00
41686;BME280;27370;42.764;23.432;2023-02-28T07:57:13;64952.78;;;-141.99;100.00
41686;BME280;27370;42.764;23.432;2023-02-28T07:59:39;64952.78;;;-141.99;100.00
41686;BME280;27370;42.764;23.432;2023-02-28T08:02:05;64952.78;;;-141.99;100.00
41686;BME280;27370;42.764;23.432;2023-02-28T08:04:33;64952.78;;;-141.99;100.00
41686;BME280;27370;42.764;23.432;2023-02-28T08:06:58;64952.78;;;-141.99;100.00
41686;BME280;27370;42.764;23.432;2023-02-28T08:09:25;64952.78;;;-141.99;100.00
41686;BME280;27370;42.764;23.432;2023-02-28T08:11:51;64952.78;;;-141.99;100.00
41686;BME280;27370;42.764;23.432;2023-02-28T08:14:16;64952.78;;;-141.99;100.00
41686;BME280;27370;42.764;23.432;2023-02-28T08:16:43;64952.78;;;-141.99;100.00
41686;BME280;27370;42.764;23.432;2023-02-28T08:19:08;64952.78;;;-141.99;100.00
41686;BME280;27370;42.764;23.432;2023-02-28T08:21:34;64952.78;;;-141.99;100.00
41686;BME280;27370;42.764;23.432;2023-02-28T08:23:59;64952.78;;;-141.99;100.00
41686;BME280;27370;42.764;23.432;2023-02-28T08:26:25;64952.78;;;-141.99;100.00
41686;BME280;27370;42.764;23.432;2023-02-28T08:28:50;64952.78;;;-141.99;100.00
41686;BME280;27370;42.764;23.432;2023-02-28T08:31:17;64952.78;;;-141.99;100.00
41686;BME280;27370;42.764;23.432;2023-02-28T08:33:43;64952.78;;;-141.99;100.00
41686;BME280;27370;42.764;23.432;2023-02-28T08:36:10;64952.78;;;-141.99;100.00
41686;BME280;27370;42.764;23.432;2023-02-28T08:38:36;64952.78;;;-141.99;100.00
41686;BME280;27370;42.764;23.432;2023-02-28T08:41:05;64952.78;;;-141.99;100.00
41686;BME280;27370;42.764;23.432;2023-02-28T08:43:35;64952.78;;;-141.99;100.00
41686;BME280;27370;42.764;23.432;2023-02-28T08:46:01;64952.78;;;-141.99;100.00
41686;BME280;27370;42.764;23.432;2023-02-28T08:48:28;64952.78;;;-141.99;100.00
41686;BME280;27370;42.764;23.432;2023-02-28T08:51:06;64952.78;;;-141.99;100.00
41686;BME280;27370;42.764;23.432;2023-02-28T08:53:32;64952.78;;;-141.99;100.00
41686;BME280;27370;42.764;23.432;2023-02-28T08:56:10;64952.78;;;-141.99;100.00
41686;BME280;27370;42.764;23.432;2023-02-28T08:58:35;64952.78;;;-141.99;100.00
41686;BME280;27370;42.764;23.432;2023-02-28T09:01:14;64952.78;;;-141.99;100.00
41686;BME280;27370;42.764;23.432;2023-02-28T09:03:40;64952.78;;;-141.99;100.00
41686;BME280;27370;42.764;23.432;2023-02-28T09:06:07;64952.78;;;-141.99;100.00
41686;BME280;27370;42.764;23.432;2023-02-28T09:08:33;64952.78;;;-141.99;100.00
41686;BME280;27370;42.764;23.432;2023-02-28T09:10:58;64952.78;;;-141.99;100.00
41686;BME280;27370;42.764;23.432;2023-02-28T09:13:25;64952.78;;;-141.99;100.00
41686;BME280;27370;42.764;23.432;2023-02-28T09:15:52;64952.78;;;-141.99;100.00
41686;BME280;27370;42.764;23.432;2023-02-28T09:18:17;64952.78;;;-141.99;100.00
41686;BME280;27370;42.764;23.432;2023-02-28T09:20:43;64952.78;;;-141.99;100.00
41686;BME280;27370;42.764;23.432;2023-02-28T09:23:11;64952.78;;;-141.99;100.00
41686;BME280;27370;42.764;23.432;2023-02-28T09:25:38;64952.78;;;-141.99;100.00
41686;BME280;27370;42.764;23.432;2023-02-28T09:28:04;64952.78;;;-141.99;100.00
41686;BME280;27370;42.764;23.432;2023-02-28T09:30:30;64952.78;;;-141.99;100.00
41686;BME280;27370;42.764;23.432;2023-02-28T09:32:56;64952.78;;;-141.99;100.00
41686;BME280;27370;42.764;23.432;2023-02-28T09:35:22;64952.78;;;-141.99;100.00
41686;BME280;27370;42.764;23.432;2023-02-28T09:37:51;64952.78;;;-141.99;100.00
41686;BME280;27370;42.764;23.432;2023-02-28T09:40:21;64952.78;;;-141.99;100.00
41686;BME280;27370;42.764;23.432;2023-02-28T09:42:48;64952.78;;;-141.99;100.00
41686;BME280;27370;42.764;23.432;2023-02-28T09:45:33;64952.78;;;-141.99;100.00
41686;BME280;27370;42.764;23.432;2023-02-28T09:48:04;64952.78;;;-141.99;100.00
41686;BME280;27370;42.764;23.432;2023-02-28T09:50:51;64952.78;;;-141.99;100.00
41686;BME280;27370;42.764;23.432;2023-02-28T09:53:28;64952.78;;;-141.99;100.00
41686;BME280;27370;42.764;23.432;2023-02-28T09:55:58;64952.78;;;-141.99;100.00
41686;BME280;27370;42.764;23.432;2023-02-28T09:58:38;64952.78;;;-141.99;100.00
41686;BME280;27370;42.764;23.432;2023-02-28T10:01:18;64952.78;;;-141.99;100.00
41686;BME280;27370;42.764;23.432;2023-02-28T10:04:08;64952.78;;;-141.99;100.00
41686;BME280;27370;42.764;23.432;2023-02-28T10:06:46;64952.78;;;-141.99;100.00
41686;BME280;27370;42.764;23.432;2023-02-28T10:09:24;64952.78;;;-141.99;100.00
41686;BME280;27370;42.764;23.432;2023-02-28T10:11:52;64952.78;;;-141.99;100.00
41686;BME280;27370;42.764;23.432;2023-02-28T10:14:22;64952.78;;;-141.99;100.00
41686;BME280;27370;42.764;23.432;2023-02-28T10:16:55;64952.78;;;-141.99;100.00
41686;BME280;27370;42.764;23.432;2023-02-28T10:24:55;64952.78;;;-141.99;100.00
41686;BME280;27370;42.764;23.432;2023-02-28T10:27:30;64952.78;;;-141.99;100.00
41686;BME280;27370;42.764;23.432;2023-02-28T10:29:59;64952.78;;;-141.99;100.00
41686;BME280;27370;42.764;23.432;2023-02-28T10:32:26;64952.78;;;-141.99;100.00
41686;BME280;27370;42.764;23.432;2023-02-28T10:37:27;64952.78;;;-141.99;100.00
41686;BME280;27370;42.764;23.432;2023-02-28T10:39:53;64952.78;;;-141.99;100.00
41686;BME280;27370;42.764;23.432;2023-02-28T10:42:27;64952.78;;;-141.99;100.00
41686;BME280;27370;42.764;23.432;2023-02-28T10:47:40;64952.78;;;-141.99;100.00
41686;BME280;27370;42.764;23.432;2023-02-28T10:56:03;64952.78;;;-141.99;100.00
41686;BME280;27370;42.764;23.432;2023-02-28T10:58:48;64952.78;;;-141.99;100.00
41686;BME280;27370;42.764;23.432;2023-02-28T11:03:45;64952.78;;;-141.99;100.00
41686;BME280;27370;42.764;23.432;2023-02-28T11:06:23;64952.78;;;-141.99;100.00
41686;BME280;27370;42.764;23.432;2023-02-28T11:09:20;64952.78;;;-141.99;100.00
41686;BME280;27370;42.764;23.432;2023-02-28T11:11:48;64952.78;;;-141.99;100.00
41686;BME280;27370;42.764;23.432;2023-02-28T11:16:45;64952.78;;;-141.99;100.00
41686;BME280;27370;42.764;23.432;2023-02-28T11:19:28;64952.78;;;-141.99;100.00
41686;BME280;27370;42.764;23.432;2023-02-28T11:21:59;64952.78;;;-141.99;100.00
41686;BME280;27370;42.764;23.432;2023-02-28T11:24:28;64952.78;;;-141.99;100.00
41686;BME280;27370;42.764;23.432;2023-02-28T11:26:56;64952.78;;;-141.99;100.00
41686;BME280;27370;42.764;23.432;2023-02-28T11:29:32;64952.78;;;-141.99;100.00
41686;BME280;27370;42.764;23.432;2023-02-28T11:32:20;64952.78;;;-141.99;100.00
41686;BME280;27370;42.764;23.432;2023-02-28T11:34:47;64952.78;;;-141.99;100.00
41686;BME280;27370;42.764;23.432;2023-02-28T11:37:25;64952.78;;;-141.99;100.00
41686;BME280;27370;42.764;23.432;2023-02-28T11:39:52;64952.78;;;-141.99;100.00
41686;BME280;27370;42.764;23.432;2023-02-28T11:42:32;64952.78;;;-141.99;100.00
41686;BME280;27370;42.764;23.432;2023-02-28T11:53:55;64952.78;;;-141.99;100.00
41686;BME280;27370;42.764;23.432;2023-02-28T11:56:36;64952.78;;;-141.99;100.00
41686;BME280;27370;42.764;23.432;2023-02-28T12:21:24;64952.78;;;-141.99;100.00
41686;BME280;27370;42.764;23.432;2023-02-28T12:28:53;64952.78;;;-141.99;100.00
41686;BME280;27370;42.764;23.432;2023-02-28T12:31:38;64952.78;;;-141.99;100.00
41686;BME280;27370;42.764;23.432;2023-02-28T12:34:27;64952.78;;;-141.99;100.00
41686;BME280;27370;42.764;23.432;2023-02-28T12:36:55;64952.78;;;-141.99;100.00
41686;BME280;27370;42.764;23.432;2023-02-28T12:39:28;64952.78;;;-141.99;100.00
41686;BME280;27370;42.764;23.432;2023-02-28T12:42:10;64952.78;;;-141.99;100.00
41686;BME280;27370;42.764;23.432;2023-02-28T12:44:59;64952.78;;;-141.99;100.00
41686;BME280;27370;42.764;23.432;2023-02-28T12:47:26;64952.78;;;-141.99;100.00
41686;BME280;27370;42.764;23.432;2023-02-28T12:49:58;64952.78;;;-141.99;100.00
41686;BME280;27370;42.764;23.432;2023-02-28T12:52:41;64952.78;;;-141.99;100.00
41686;BME280;27370;42.764;23.432;2023-02-28T12:55:23;64952.78;;;-141.99;100.00
41686;BME280;27370;42.764;23.432;2023-02-28T13:09:14;64952.78;;;-141.99;100.00
41686;BME280;27370;42.764;23.432;2023-02-28T13:11:48;64952.78;;;-141.99;100.00
41686;BME280;27370;42.764;23.432;2023-02-28T13:14:29;64952.78;;;-141.99;100.00
41686;BME280;27370;42.764;23.432;2023-02-28T13:16:57;64952.78;;;-141.99;100.00
41686;BME280;27370;42.764;23.432;2023-02-28T13:19:26;64952.78;;;-141.99;100.00
41686;BME280;27370;42.764;23.432;2023-02-28T13:21:52;64952.78;;;-141.99;100.00
41686;BME280;27370;42.764;23.432;2023-02-28T13:29:33;64952.78;;;-141.99;100.00
41686;BME280;27370;42.764;23.432;2023-02-28T13:34:34;64952.78;;;-141.99;100.00
41686;BME280;27370;42.764;23.432;2023-02-28T13:47:33;64952.78;;;-141.99;100.00
41686;BME280;27370;42.764;23.432;2023-02-28T14:06:51;64952.78;;;-141.99;100.00
41686;BME280;27370;42.764;23.432;2023-02-28T14:09:23;64952.78;;;-141.99;100.00
41686;BME280;27370;42.764;23.432;2023-02-28T14:11:50;64952.78;;;-141.99;100.00
41686;BME280;27370;42.764;23.432;2023-02-28T14:17:05;64952.78;;;-141.99;100.00
41686;BME280;27370;42.764;23.432;2023-02-28T14:19:34;64952.78;;;-141.99;100.00
41686;BME280;27370;42.764;23.432;2023-02-28T14:30:56;64952.78;;;-141.99;100.00
41686;BME280;27370;42.764;23.432;2023-02-28T14:38:45;64952.78;;;-141.99;100.00
41686;BME280;27370;42.764;23.432;2023-02-28T14:41:22;64952.78;;;-141.99;100.00
41686;BME280;27370;42.764;23.432;2023-02-28T14:43:54;64952.78;;;-141.99;100.00
41686;BME280;27370;42.764;23.432;2023-02-28T14:46:20;64952.78;;;-141.99;100.00
41686;BME280;27370;42.764;23.432;2023-02-28T14:48:48;64952.78;;;-141.99;100.00
41686;BME280;27370;42.764;23.432;2023-02-28T14:51:19;64952.78;;;-141.99;100.00
41686;BME280;27370;42.764;23.432;2023-02-28T14:53:49;64952.78;;;-141.99;100.00
41686;BME280;27370;42.764;23.432;2023-02-28T14:56:42;64952.78;;;-141.99;100.00
41686;BME280;27370;42.764;23.432;2023-02-28T14:59:34;64952.78;;;-141.99;100.00
41686;BME280;27370;42.764;23.432;2023-02-28T15:02:25;64952.78;;;-141.99;100.00
41686;BME280;27370;42.764;23.432;2023-02-28T15:04:58;64952.78;;;-141.99;100.00
41686;BME280;27370;42.764;23.432;2023-02-28T15:07:25;64952.78;;;-141.99;100.00
41686;BME280;27370;42.764;23.432;2023-02-28T15:10:20;64952.78;;;-141.99;100.00